Time;durP1;ratioP1;P1;durP2;ratioP2;P2;SDS_P1;SDS_P2;PMS_P1;PMS_P2;Temp;Humidity;BMP_temperature;BMP_pressure;BME280_temperature;BME280_humidity;BME280_pressure;Samples;Min_cycle;Max_cycle;Signal;HPM_P1;HPM_P2
2022/04/15 00:02:21;;;;;;;;;;;14.20;79.80;;;;;;5131180;27;19985;-73
2022/04/15 00:04:46;;;;;;;;;;;14.20;79.80;;;;;;5149819;27;19982;-73
2022/04/15 00:07:12;;;;;;;;;;;14.20;79.80;;;;;;5149820;27;19911;-73
2022/04/15 00:09:38;;;;;;;;;;;14.30;79.70;;;;;;5149706;27;20391;-73
2022/04/15 00:12:10;;;;;;;;;;;14.30;79.70;;;;;;5149750;27;19907;-73
2022/04/15 00:14:36;;;;;;;;;;;14.30;79.70;;;;;;5150184;27;20262;-73
2022/04/15 00:17:01;;;;;;;;;;;14.30;79.60;;;;;;5149648;27;19922;-73
2022/04/15 00:19:27;;;;;;;;;;;14.30;79.60;;;;;;5150027;27;20312;-73
2022/04/15 00:21:53;;;;;;;;;;;14.20;79.60;;;;;;5131100;27;20490;-74
2022/04/15 00:24:18;;;;;;;;;;;14.20;79.70;;;;;;5149408;27;19911;-73
2022/04/15 00:26:44;;;;;;;;;;;14.20;79.70;;;;;;5149821;27;20358;-73
2022/04/15 00:29:10;;;;;;;;;;;14.20;79.70;;;;;;5149584;27;19919;-73
2022/04/15 00:31:35;;;;;;;;;;;14.20;79.60;;;;;;5149605;27;19908;-73
2022/04/15 00:34:04;;;;;;;;;;;14.20;79.50;;;;;;5149502;27;19915;-73
2022/04/15 00:36:29;;;;;;;;;;;14.10;79.40;;;;;;5149339;27;20442;-73
2022/04/15 00:38:55;;;;;;;;;;;14.10;79.40;;;;;;5149408;27;20006;-73
2022/04/15 00:41:21;;;;;;;;;;;14.00;79.30;;;;;;5149441;27;19969;-73
2022/04/15 00:43:46;;;;;;;;;;;13.90;79.40;;;;;;5149409;27;19911;-73
2022/04/15 00:46:12;;;;;;;;;;;13.80;79.50;;;;;;5149409;27;19911;-73
2022/04/15 00:48:38;;;;;;;;;;;13.80;79.50;;;;;;5149492;27;19915;-73
2022/04/15 00:51:04;;;;;;;;;;;13.70;79.50;;;;;;5149435;27;19907;-73
2022/04/15 00:53:31;;;;;;;;;;;13.70;79.50;;;;;;5149195;27;19990;-73
2022/04/15 00:55:59;;;;;;;;;;;13.70;79.50;;;;;;5149227;27;19957;-73
2022/04/15 00:58:25;;;;;;;;;;;13.80;79.50;;;;;;5149347;27;19915;-73
2022/04/15 01:00:54;;;;;;;;;;;13.80;79.50;;;;;;5149347;27;19998;-73
2022/04/15 01:03:21;;;;;;;;;;;13.90;79.50;;;;;;5148943;27;19958;-73
2022/04/15 01:05:47;;;;;;;;;;;13.80;79.40;;;;;;5149380;27;19907;-73
2022/04/15 01:08:14;;;;;;;;;;;13.90;79.50;;;;;;5149141;27;19942;-73
2022/04/15 01:10:40;;;;;;;;;;;13.90;79.50;;;;;;5149266;27;19960;-73
2022/04/15 01:13:06;;;;;;;;;;;13.90;79.40;;;;;;5149127;27;19915;-73
2022/04/15 01:15:32;;;;;;;;;;;13.80;79.40;;;;;;5149166;27;19994;-73
2022/04/15 01:17:58;;;;;;;;;;;13.70;79.50;;;;;;5149182;27;19977;-73
2022/04/15 01:20:25;;;;;;;;;;;13.60;79.50;;;;;;5149139;27;19916;-73
2022/04/15 01:22:56;;;;;;;;;;;13.60;79.60;;;;;;5149030;27;20010;-73
2022/04/15 01:25:22;;;;;;;;;;;13.60;79.60;;;;;;5149101;27;19914;-73
2022/04/15 01:27:48;;;;;;;;;;;13.70;79.50;;;;;;5149072;27;19911;-73
2022/04/15 01:30:17;;;;;;;;;;;13.70;79.50;;;;;;5149028;27;19915;-73
2022/04/15 01:32:43;;;;;;;;;;;13.70;79.50;;;;;;5148902;27;19907;-73
2022/04/15 01:35:11;;;;;;;;;;;13.70;79.40;;;;;;5148651;27;19958;-73
2022/04/15 01:37:37;;;;;;;;;;;13.80;79.40;;;;;;5151979;27;19966;-73
2022/04/15 01:40:03;;;;;;;;;;;13.80;79.30;;;;;;5134045;27;19950;-73
2022/04/15 01:42:29;;;;;;;;;;;13.80;79.40;;;;;;5134009;27;19946;-73
2022/04/15 01:44:55;;;;;;;;;;;13.90;79.40;;;;;;5152562;27;20375;-73
2022/04/15 01:47:20;;;;;;;;;;;13.90;79.30;;;;;;5152618;27;19997;-73
2022/04/15 01:49:46;;;;;;;;;;;13.80;79.30;;;;;;5152484;27;20416;-73
2022/04/15 01:52:11;;;;;;;;;;;13.80;79.40;;;;;;5152385;27;20269;-73
2022/04/15 01:54:37;;;;;;;;;;;13.80;79.50;;;;;;5152321;27;20322;-73
2022/04/15 01:57:03;;;;;;;;;;;13.80;79.50;;;;;;5152325;27;19922;-73
2022/04/15 01:59:28;;;;;;;;;;;13.80;79.40;;;;;;5152307;27;20361;-73
2022/04/15 02:01:56;;;;;;;;;;;13.70;79.20;;;;;;5152476;27;19931;-73
2022/04/15 02:04:22;;;;;;;;;;;13.70;79.20;;;;;;5152628;27;19919;-73
2022/04/15 02:06:48;;;;;;;;;;;13.70;79.20;;;;;;5152094;27;20401;-73
2022/04/15 02:09:14;;;;;;;;;;;13.60;79.20;;;;;;5133431;27;19988;-73
2022/04/15 02:11:39;;;;;;;;;;;13.60;79.30;;;;;;5152073;27;20402;-73
2022/04/15 02:14:05;;;;;;;;;;;13.60;79.40;;;;;;5151830;27;19935;-73
2022/04/15 02:16:31;;;;;;;;;;;13.50;79.60;;;;;;5133165;27;20303;-73
2022/04/15 02:18:56;;;;;;;;;;;13.60;79.70;;;;;;5151929;27;19911;-73
2022/04/15 02:21:22;;;;;;;;;;;13.60;79.60;;;;;;5151834;27;20010;-73
2022/04/15 02:23:47;;;;;;;;;;;13.60;79.50;;;;;;5151772;27;19912;-73
2022/04/15 02:26:13;;;;;;;;;;;13.60;79.50;;;;;;5151830;27;19911;-74
2022/04/15 02:28:38;;;;;;;;;;;13.70;79.60;;;;;;5151990;27;20077;-73
2022/04/15 02:31:04;;;;;;;;;;;13.70;79.60;;;;;;5133016;27;19934;-73
2022/04/15 02:33:29;;;;;;;;;;;13.80;79.70;;;;;;5151550;27;19933;-73
2022/04/15 02:35:55;;;;;;;;;;;13.80;79.70;;;;;;5151300;27;19923;-73
2022/04/15 02:38:20;;;;;;;;;;;13.90;79.70;;;;;;5151559;27;19911;-73
2022/04/15 02:40:46;;;;;;;;;;;13.90;80.10;;;;;;5151590;27;19956;-73
2022/04/15 02:43:12;;;;;;;;;;;13.90;79.70;;;;;;5151475;27;20353;-73
2022/04/15 02:45:37;;;;;;;;;;;13.90;79.70;;;;;;5151374;27;19915;-73
2022/04/15 02:48:03;;;;;;;;;;;13.90;79.80;;;;;;5150181;27;19915;-73
2022/04/15 02:50:29;;;;;;;;;;;13.90;79.70;;;;;;5151178;27;19949;-73
2022/04/15 02:52:55;;;;;;;;;;;14.00;79.70;;;;;;5132483;27;19907;-73
2022/04/15 02:55:20;;;;;;;;;;;14.00;80.20;;;;;;5151128;27;20296;-73
2022/04/15 02:57:46;;;;;;;;;;;14.00;79.80;;;;;;5150995;27;19911;-74
2022/04/15 03:00:12;;;;;;;;;;;14.00;79.80;;;;;;5151380;27;19912;-73
2022/04/15 03:02:38;;;;;;;;;;;13.90;79.90;;;;;;5132104;27;19911;-73
2022/04/15 03:05:04;;;;;;;;;;;13.90;80.00;;;;;;5150733;27;19914;-73
2022/04/15 03:07:29;;;;;;;;;;;13.90;80.00;;;;;;5150824;27;19911;-73
2022/04/15 03:09:55;;;;;;;;;;;13.80;80.00;;;;;;5132266;27;19983;-73
2022/04/15 03:12:21;;;;;;;;;;;13.80;80.00;;;;;;5150959;27;19907;-73
2022/04/15 03:14:49;;;;;;;;;;;13.80;80.00;;;;;;5132064;27;20341;-73
2022/04/15 03:17:14;;;;;;;;;;;13.80;80.00;;;;;;5150804;27;20094;-73
2022/04/15 03:19:40;;;;;;;;;;;13.80;79.90;;;;;;5150766;27;19911;-73
2022/04/15 03:22:05;;;;;;;;;;;13.70;79.80;;;;;;5150664;27;19919;-73
2022/04/15 03:24:31;;;;;;;;;;;13.70;80.10;;;;;;5150573;27;19964;-73
2022/04/15 03:26:57;;;;;;;;;;;13.60;79.90;;;;;;5114942;27;20035;-73
2022/04/15 03:29:22;;;;;;;;;;;13.50;80.00;;;;;;5150607;27;19929;-73
2022/04/15 03:31:48;;;;;;;;;;;13.50;80.60;;;;;;5150557;27;19911;-73
2022/04/15 03:34:13;;;;;;;;;;;13.40;80.20;;;;;;5150360;27;19998;-73
2022/04/15 03:36:40;;;;;;;;;;;13.40;80.40;;;;;;5150228;27;20206;-73
2022/04/15 03:39:05;;;;;;;;;;;13.30;80.40;;;;;;5131807;27;20032;-73
2022/04/15 03:41:31;;;;;;;;;;;13.40;80.70;;;;;;5150478;27;20426;-73
2022/04/15 03:43:57;;;;;;;;;;;13.40;80.50;;;;;;5150130;27;19908;-73
2022/04/15 03:46:22;;;;;;;;;;;13.40;80.50;;;;;;5150738;27;20269;-73
2022/04/15 03:48:48;;;;;;;;;;;13.40;80.40;;;;;;5150223;27;19915;-73
2022/04/15 03:51:13;;;;;;;;;;;13.40;80.40;;;;;;5150118;27;20025;-73
2022/04/15 03:53:39;;;;;;;;;;;13.40;80.40;;;;;;5150122;27;19925;-73
2022/04/15 03:56:07;;;;;;;;;;;13.40;80.40;;;;;;5131468;27;19926;-73
2022/04/15 03:58:33;;;;;;;;;;;13.50;80.40;;;;;;5149679;27;19907;-73
2022/04/15 04:00:59;;;;;;;;;;;13.50;80.40;;;;;;5149592;27;19952;-73
2022/04/15 04:03:25;;;;;;;;;;;13.60;80.50;;;;;;5149856;27;20285;-73
2022/04/15 04:05:51;;;;;;;;;;;13.60;80.40;;;;;;5149689;27;19911;-73
2022/04/15 04:08:16;;;;;;;;;;;13.60;80.30;;;;;;5149898;27;19937;-73
2022/04/15 04:10:42;;;;;;;;;;;13.70;80.30;;;;;;5149914;27;19959;-73
2022/04/15 04:13:07;;;;;;;;;;;13.70;80.30;;;;;;5149753;27;20326;-73
2022/04/15 04:15:33;;;;;;;;;;;13.70;80.20;;;;;;5150151;27;19911;-73
2022/04/15 04:17:58;;;;;;;;;;;13.80;80.30;;;;;;5149654;27;19919;-73
2022/04/15 04:20:24;;;;;;;;;;;13.80;80.30;;;;;;5149803;27;19915;-73
2022/04/15 04:22:50;;;;;;;;;;;13.80;80.30;;;;;;5149624;27;19922;-73
2022/04/15 04:25:15;;;;;;;;;;;13.80;80.40;;;;;;5149648;27;19953;-73
2022/04/15 04:27:41;;;;;;;;;;;13.80;80.40;;;;;;5149670;27;19912;-73
2022/04/15 04:30:08;;;;;;;;;;;13.80;80.40;;;;;;5149750;27;19907;-73
2022/04/15 04:32:34;;;;;;;;;;;13.90;80.40;;;;;;5149475;27;20281;-73
2022/04/15 04:35:00;;;;;;;;;;;13.90;80.30;;;;;;5149444;27;19915;-73
2022/04/15 04:37:25;;;;;;;;;;;13.90;80.60;;;;;;5149513;27;19915;-74
2022/04/15 04:39:51;;;;;;;;;;;13.90;80.60;;;;;;5149540;27;20365;-73
2022/04/15 04:42:18;;;;;;;;;;;13.90;80.70;;;;;;5149544;27;20284;-73
2022/04/15 04:44:44;;;;;;;;;;;13.90;80.60;;;;;;5149419;27;20254;-73
2022/04/15 04:47:10;;;;;;;;;;;13.80;80.60;;;;;;5149311;27;19997;-73
2022/04/15 04:49:35;;;;;;;;;;;13.80;80.70;;;;;;5149459;27;19914;-73
2022/04/15 04:52:02;;;;;;;;;;;13.80;80.60;;;;;;5149450;27;19917;-73
2022/04/15 04:54:28;;;;;;;;;;;13.80;80.80;;;;;;5149232;27;19911;-73
2022/04/15 04:56:53;;;;;;;;;;;13.90;80.80;;;;;;5149302;27;19972;-73
2022/04/15 04:59:22;;;;;;;;;;;13.80;80.80;;;;;;5130805;27;19915;-73
2022/04/15 05:01:47;;;;;;;;;;;13.90;81.00;;;;;;5149262;27;19918;-73
2022/04/15 05:04:13;;;;;;;;;;;13.90;80.80;;;;;;5149559;27;19945;-73
2022/04/15 05:06:38;;;;;;;;;;;13.90;80.80;;;;;;5149323;27;20355;-73
2022/04/15 05:09:04;;;;;;;;;;;13.90;80.80;;;;;;5149279;27;20323;-73
2022/04/15 05:11:29;;;;;;;;;;;13.90;80.80;;;;;;5150430;27;19953;-74
2022/04/15 05:13:55;;;;;;;;;;;13.90;80.90;;;;;;5153053;27;19918;-73
2022/04/15 05:16:21;;;;;;;;;;;13.90;81.00;;;;;;5152865;27;19922;-73
2022/04/15 05:18:46;;;;;;;;;;;13.90;81.00;;;;;;5153028;27;19907;-73
2022/04/15 05:21:13;;;;;;;;;;;13.90;80.90;;;;;;5153075;27;19952;-73
2022/04/15 05:23:38;;;;;;;;;;;13.90;80.90;;;;;;5152935;27;20393;-73
2022/04/15 05:26:04;;;;;;;;;;;13.90;80.90;;;;;;5153152;27;19953;-73
2022/04/15 05:28:32;;;;;;;;;;;14.00;80.90;;;;;;5152852;27;19911;-73
2022/04/15 05:30:58;;;;;;;;;;;14.00;80.90;;;;;;5152712;27;19915;-73
2022/04/15 05:33:23;;;;;;;;;;;14.00;80.90;;;;;;5152650;27;20238;-73
2022/04/15 05:35:49;;;;;;;;;;;14.00;80.90;;;;;;5152458;27;19930;-73
2022/04/15 05:38:14;;;;;;;;;;;14.00;80.90;;;;;;5152708;27;20020;-73
2022/04/15 05:40:40;;;;;;;;;;;14.00;80.90;;;;;;5152681;27;19907;-74
2022/04/15 05:43:08;;;;;;;;;;;14.00;81.00;;;;;;5151860;27;20258;-73
2022/04/15 05:45:33;;;;;;;;;;;14.00;81.10;;;;;;5152565;27;19911;-73
2022/04/15 05:47:59;;;;;;;;;;;14.00;81.00;;;;;;5152395;27;19963;-73
2022/04/15 05:50:25;;;;;;;;;;;14.00;81.00;;;;;;5152501;27;19950;-74
2022/04/15 05:52:50;;;;;;;;;;;14.00;81.00;;;;;;5152399;27;19911;-73
2022/04/15 05:55:16;;;;;;;;;;;14.00;81.10;;;;;;5152303;27;20277;-73
2022/04/15 05:57:41;;;;;;;;;;;14.00;81.10;;;;;;5152148;27;19961;-74
2022/04/15 06:00:08;;;;;;;;;;;14.00;81.20;;;;;;5152122;27;19911;-73
2022/04/15 06:02:34;;;;;;;;;;;14.00;81.20;;;;;;5152090;27;19907;-73
2022/04/15 06:05:00;;;;;;;;;;;14.10;81.20;;;;;;5152116;27;19914;-73
2022/04/15 06:07:25;;;;;;;;;;;14.10;81.20;;;;;;5152207;27;20008;-73
2022/04/15 06:09:51;;;;;;;;;;;14.10;81.20;;;;;;5152053;27;19918;-73
2022/04/15 06:12:16;;;;;;;;;;;14.20;81.40;;;;;;5151879;27;20284;-73
2022/04/15 06:14:42;;;;;;;;;;;14.30;81.60;;;;;;5133668;27;19995;-73
2022/04/15 06:17:08;;;;;;;;;;;14.40;81.50;;;;;;5151799;27;19960;-73
2022/04/15 06:19:33;;;;;;;;;;;14.40;81.40;;;;;;5151858;27;20389;-73
2022/04/15 06:21:59;;;;;;;;;;;14.50;81.30;;;;;;5151553;27;19922;-74
2022/04/15 06:24:24;;;;;;;;;;;14.60;81.40;;;;;;5151790;27;20373;-74
2022/04/15 06:26:51;;;;;;;;;;;14.60;81.20;;;;;;5151715;27;20276;-73
2022/04/15 06:29:16;;;;;;;;;;;14.50;81.10;;;;;;5151626;27;19907;-73
2022/04/15 06:31:42;;;;;;;;;;;14.50;81.20;;;;;;5151112;27;19964;-73
2022/04/15 06:34:07;;;;;;;;;;;14.50;81.30;;;;;;5151579;27;19911;-74
2022/04/15 06:36:33;;;;;;;;;;;14.60;81.20;;;;;;5151343;27;19933;-73
2022/04/15 06:38:59;;;;;;;;;;;14.50;81.10;;;;;;5151447;27;19930;-74
2022/04/15 06:41:24;;;;;;;;;;;14.60;81.20;;;;;;5151385;27;19912;-74
2022/04/15 06:43:50;;;;;;;;;;;14.60;81.30;;;;;;5151380;27;19915;-73
2022/04/15 06:46:15;;;;;;;;;;;14.60;81.30;;;;;;5132734;27;19918;-73
2022/04/15 06:48:41;;;;;;;;;;;14.60;81.30;;;;;;5151059;27;19916;-74
2022/04/15 06:51:06;;;;;;;;;;;14.60;81.30;;;;;;5151058;27;19911;-74
2022/04/15 06:53:32;;;;;;;;;;;14.60;81.30;;;;;;5150695;27;19911;-73
2022/04/15 06:55:57;;;;;;;;;;;14.50;81.30;;;;;;5150771;27;19911;-73
2022/04/15 06:58:23;;;;;;;;;;;14.50;81.40;;;;;;5151184;27;19918;-73
2022/04/15 07:00:49;;;;;;;;;;;14.50;81.50;;;;;;5151031;27;19973;-73
2022/04/15 07:03:15;;;;;;;;;;;14.60;81.60;;;;;;5150908;27;19918;-73
2022/04/15 07:05:41;;;;;;;;;;;14.60;81.60;;;;;;5150964;27;19911;-73
2022/04/15 07:08:10;;;;;;;;;;;14.70;81.70;;;;;;5151005;27;20349;-73
2022/04/15 07:10:36;;;;;;;;;;;14.70;81.80;;;;;;5150717;27;20000;-74
2022/04/15 07:13:02;;;;;;;;;;;14.80;81.80;;;;;;5150756;27;20232;-73
2022/04/15 07:15:28;;;;;;;;;;;14.80;81.70;;;;;;5150614;27;19923;-74
2022/04/15 07:17:53;;;;;;;;;;;14.90;81.60;;;;;;5150801;27;19919;-73
2022/04/15 07:20:19;;;;;;;;;;;14.90;81.60;;;;;;5150614;27;19999;-73
2022/04/15 07:22:44;;;;;;;;;;;14.90;81.60;;;;;;5150926;27;19912;-73
2022/04/15 07:25:10;;;;;;;;;;;14.80;81.50;;;;;;5150325;27;20433;-73
2022/04/15 07:27:35;;;;;;;;;;;14.80;81.80;;;;;;5150082;27;19908;-73
2022/04/15 07:30:01;;;;;;;;;;;14.80;81.90;;;;;;5150436;27;20033;-73
2022/04/15 07:32:28;;;;;;;;;;;14.80;81.90;;;;;;5150325;27;19907;-73
2022/04/15 07:34:54;;;;;;;;;;;14.80;81.90;;;;;;5131352;27;19923;-73
2022/04/15 07:37:20;;;;;;;;;;;14.90;82.20;;;;;;5150057;27;20367;-73
2022/04/15 07:39:45;;;;;;;;;;;14.90;82.20;;;;;;5150169;27;19932;-73
2022/04/15 07:42:12;;;;;;;;;;;15.00;82.40;;;;;;5150083;27;19915;-73
2022/04/15 07:44:38;;;;;;;;;;;15.00;82.40;;;;;;5149770;27;19958;-74
2022/04/15 07:47:04;;;;;;;;;;;15.00;82.40;;;;;;5149965;27;19959;-74
2022/04/15 07:49:29;;;;;;;;;;;15.10;82.40;;;;;;5150040;27;20030;-73
2022/04/15 07:51:55;;;;;;;;;;;15.10;82.50;;;;;;5150050;27;20010;-73
2022/04/15 07:54:20;;;;;;;;;;;15.20;82.60;;;;;;5149572;27;19923;-73
2022/04/15 07:56:46;;;;;;;;;;;15.30;82.70;;;;;;5149387;27;19922;-73
2022/04/15 07:59:12;;;;;;;;;;;15.30;82.60;;;;;;5149560;27;19919;-73
2022/04/15 08:01:38;;;;;;;;;;;15.40;82.50;;;;;;5149196;27;19915;-73
2022/04/15 08:04:05;;;;;;;;;;;15.40;82.60;;;;;;5149579;27;19911;-73
2022/04/15 08:06:31;;;;;;;;;;;15.40;82.40;;;;;;5149702;27;19914;-73
2022/04/15 08:08:57;;;;;;;;;;;15.40;82.30;;;;;;5149712;27;19907;-73
2022/04/15 08:11:23;;;;;;;;;;;15.40;82.50;;;;;;5149593;27;19917;-74
2022/04/15 08:13:49;;;;;;;;;;;15.40;82.50;;;;;;5149444;27;19918;-73
2022/04/15 08:16:15;;;;;;;;;;;15.30;82.70;;;;;;5149242;27;19911;-74
2022/04/15 08:18:41;;;;;;;;;;;15.20;82.70;;;;;;5149321;27;20350;-74
2022/04/15 08:21:07;;;;;;;;;;;15.20;83.00;;;;;;5130723;27;20345;-73
2022/04/15 08:23:32;;;;;;;;;;;15.20;83.20;;;;;;5148866;27;19907;-74
2022/04/15 08:25:58;;;;;;;;;;;15.20;83.10;;;;;;5149404;27;20390;-73
2022/04/15 08:28:24;;;;;;;;;;;15.20;83.30;;;;;;5149505;27;19935;-74
2022/04/15 08:30:49;;;;;;;;;;;15.20;83.20;;;;;;5149080;27;19960;-73
2022/04/15 08:33:15;;;;;;;;;;;15.40;83.40;;;;;;5148786;27;19918;-73
2022/04/15 08:35:41;;;;;;;;;;;15.50;83.30;;;;;;5149052;27;19919;-73
2022/04/15 08:38:07;;;;;;;;;;;15.60;83.20;;;;;;5148929;27;19912;-73
2022/04/15 08:40:35;;;;;;;;;;;15.70;83.20;;;;;;5149107;27;20326;-73
2022/04/15 08:43:02;;;;;;;;;;;15.70;83.30;;;;;;5148869;27;19917;-74
2022/04/15 08:45:28;;;;;;;;;;;15.80;83.10;;;;;;5150251;27;19911;-73
2022/04/15 08:47:59;;;;;;;;;;;15.90;83.10;;;;;;5153130;27;19955;-73
2022/04/15 08:50:26;;;;;;;;;;;15.90;82.80;;;;;;5153108;27;19908;-74
2022/04/15 08:52:55;;;;;;;;;;;15.90;82.80;;;;;;5152845;27;19972;-74
2022/04/15 08:55:24;;;;;;;;;;;15.90;82.90;;;;;;5153065;27;19995;-73
2022/04/15 08:57:51;;;;;;;;;;;15.90;82.90;;;;;;5153130;27;19915;-73
2022/04/15 09:00:16;;;;;;;;;;;15.80;82.80;;;;;;5152688;27;19914;-74
2022/04/15 09:02:42;;;;;;;;;;;15.90;82.90;;;;;;5133976;27;19915;-74
2022/04/15 09:05:09;;;;;;;;;;;15.90;83.00;;;;;;5152221;27;19925;-74
2022/04/15 09:07:35;;;;;;;;;;;16.00;82.80;;;;;;5152292;27;19919;-73
2022/04/15 09:10:02;;;;;;;;;;;15.90;82.70;;;;;;5153039;27;19991;-73
2022/04/15 09:12:31;;;;;;;;;;;15.90;82.70;;;;;;5133834;27;19911;-74
2022/04/15 09:15:00;;;;;;;;;;;15.90;82.80;;;;;;5152301;27;19907;-73
2022/04/15 09:17:29;;;;;;;;;;;15.90;82.90;;;;;;5151862;27;19915;-73
2022/04/15 09:19:58;;;;;;;;;;;15.90;83.00;;;;;;5152035;27;19915;-74
2022/04/15 09:22:24;;;;;;;;;;;16.00;83.10;;;;;;5152145;27;19911;-73
2022/04/15 09:24:50;;;;;;;;;;;16.10;83.10;;;;;;5152216;27;19962;-75
2022/04/15 09:27:16;;;;;;;;;;;16.20;82.90;;;;;;5152135;27;19918;-73
2022/04/15 09:29:42;;;;;;;;;;;16.20;82.70;;;;;;5152263;27;19912;-73
2022/04/15 09:32:09;;;;;;;;;;;16.20;82.80;;;;;;5152033;27;19911;-73
2022/04/15 09:35:01;;;;;;;;;;;16.20;82.80;;;;;;5151893;27;19952;-73
2022/04/15 09:37:29;;;;;;;;;;;16.20;82.90;;;;;;5148630;27;19918;-74
2022/04/15 09:40:09;;;;;;;;;;;16.30;83.00;;;;;;5152290;27;19918;-74
2022/04/15 09:42:35;;;;;;;;;;;16.30;83.00;;;;;;5152239;27;19914;-73
2022/04/15 09:45:21;;;;;;;;;;;16.40;83.10;;;;;;5151817;27;19907;-74
2022/04/15 09:47:54;;;;;;;;;;;16.50;83.10;;;;;;5132193;27;20401;-74
2022/04/15 09:50:25;;;;;;;;;;;16.60;82.80;;;;;;5151628;27;19915;-73
2022/04/15 09:52:54;;;;;;;;;;;16.70;82.80;;;;;;5152223;27;19950;-74
2022/04/15 09:55:20;;;;;;;;;;;16.80;82.60;;;;;;5151586;27;20021;-74
2022/04/15 09:57:49;;;;;;;;;;;16.80;82.40;;;;;;5150809;27;19925;-73
2022/04/15 10:00:16;;;;;;;;;;;16.70;82.50;;;;;;5150907;27;19911;-74
2022/04/15 10:02:42;;;;;;;;;;;16.70;82.50;;;;;;5151365;27;19953;-73
2022/04/15 10:05:08;;;;;;;;;;;16.80;82.70;;;;;;5150838;27;19915;-73
2022/04/15 10:07:34;;;;;;;;;;;16.80;82.60;;;;;;5132689;27;19953;-73
2022/04/15 10:10:00;;;;;;;;;;;16.80;82.50;;;;;;5151247;27;20272;-73
2022/04/15 10:12:27;;;;;;;;;;;16.80;82.60;;;;;;5150684;27;19916;-73
2022/04/15 10:14:52;;;;;;;;;;;16.80;82.70;;;;;;5132171;27;19922;-73
2022/04/15 10:17:22;;;;;;;;;;;16.90;82.60;;;;;;5150937;27;20268;-74
2022/04/15 10:19:48;;;;;;;;;;;16.90;82.70;;;;;;5132137;27;19907;-73
2022/04/15 10:22:14;;;;;;;;;;;17.00;82.70;;;;;;5132061;27;19923;-74
2022/04/15 10:24:40;;;;;;;;;;;17.00;82.50;;;;;;5150647;27;19915;-74
2022/04/15 10:27:05;;;;;;;;;;;17.00;82.40;;;;;;5151387;27;20311;-74
2022/04/15 10:29:31;;;;;;;;;;;17.00;82.30;;;;;;5151094;27;19999;-66
2022/04/15 10:32:10;;;;;;;;;;;17.00;82.30;;;;;;5150821;27;19912;-73
2022/04/15 10:34:46;;;;;;;;;;;16.90;82.50;;;;;;5149928;27;20379;-74
2022/04/15 10:37:11;;;;;;;;;;;17.00;82.60;;;;;;5132552;27;19915;-73
2022/04/15 10:39:47;;;;;;;;;;;17.10;82.70;;;;;;5132641;27;19917;-74
2022/04/15 10:42:19;;;;;;;;;;;17.10;82.50;;;;;;5150591;27;19937;-74
2022/04/15 10:44:44;;;;;;;;;;;17.10;82.30;;;;;;5150199;27;20345;-74
2022/04/15 10:47:13;;;;;;;;;;;17.00;82.20;;;;;;5150575;27;19998;-73
2022/04/15 10:49:39;;;;;;;;;;;16.90;82.20;;;;;;5150400;27;19920;-73
2022/04/15 10:52:21;;;;;;;;;;;16.80;82.50;;;;;;5150136;27;19954;-73
2022/04/15 10:54:48;;;;;;;;;;;16.80;82.70;;;;;;5130791;27;19922;-74
2022/04/15 10:57:19;;;;;;;;;;;16.80;82.70;;;;;;5149954;27;19922;-74
2022/04/15 11:02:44;;;;;;;;;;;16.80;82.90;;;;;;5150571;27;20275;-73
2022/04/15 11:05:11;;;;;;;;;;;16.80;83.00;;;;;;5150156;27;19930;-74
2022/04/15 11:07:50;;;;;;;;;;;16.90;83.00;;;;;;5130333;27;20463;-73
2022/04/15 11:10:16;;;;;;;;;;;16.90;83.00;;;;;;5148398;27;20318;-74
2022/04/15 11:12:44;;;;;;;;;;;16.90;83.00;;;;;;5149632;27;19918;-74
2022/04/15 11:15:10;;;;;;;;;;;17.00;83.00;;;;;;5149631;27;19915;-74
2022/04/15 11:17:44;;;;;;;;;;;17.10;83.00;;;;;;5149494;27;19984;-74
2022/04/15 11:20:10;;;;;;;;;;;17.10;82.90;;;;;;5148627;27;19911;-74
2022/04/15 11:22:39;;;;;;;;;;;17.00;82.90;;;;;;5149238;27;19930;-74
2022/04/15 11:25:06;;;;;;;;;;;17.00;82.90;;;;;;5149361;27;19915;-74
2022/04/15 11:27:33;;;;;;;;;;;17.00;82.90;;;;;;5130384;27;19911;-74
2022/04/15 11:30:04;;;;;;;;;;;16.90;82.90;;;;;;5149618;27;19907;-71
2022/04/15 11:32:31;;;;;;;;;;;17.00;83.50;;;;;;5148839;27;19967;-73
2022/04/15 11:35:01;;;;;;;;;;;17.20;83.70;;;;;;5130809;27;19922;-73
2022/04/15 11:37:27;;;;;;;;;;;17.40;84.00;;;;;;5149570;27;19950;-72
2022/04/15 11:39:53;;;;;;;;;;;17.60;83.40;;;;;;5149674;27;19938;-73
2022/04/15 11:42:20;;;;;;;;;;;17.90;83.70;;;;;;5130773;27;19915;-72
2022/04/15 11:44:45;;;;;;;;;;;18.20;83.00;;;;;;5149168;27;20097;-73
2022/04/15 11:47:18;;;;;;;;;;;18.40;82.60;;;;;;5149607;27;20408;-73
2022/04/15 11:49:47;;;;;;;;;;;18.40;81.70;;;;;;5149674;27;20014;-72
2022/04/15 11:52:20;;;;;;;;;;;18.40;81.30;;;;;;5148966;27;20309;-73
2022/04/15 11:54:47;;;;;;;;;;;18.30;81.30;;;;;;5130070;27;19915;-73
2022/04/15 11:57:12;;;;;;;;;;;18.40;81.40;;;;;;5148773;27;20006;-73
2022/04/15 11:59:42;;;;;;;;;;;18.40;81.30;;;;;;5148604;27;20063;-73
2022/04/15 12:02:08;;;;;;;;;;;18.50;81.20;;;;;;5148693;27;19914;-73
2022/04/15 12:04:34;;;;;;;;;;;18.40;81.10;;;;;;5148815;27;19974;-73
2022/04/15 12:07:00;;;;;;;;;;;18.40;81.70;;;;;;5149081;27;19906;-73
2022/04/15 12:09:26;;;;;;;;;;;18.40;81.40;;;;;;5148412;27;19910;-73
2022/04/15 12:11:52;;;;;;;;;;;18.50;81.40;;;;;;5148813;27;19930;-73
2022/04/15 12:14:18;;;;;;;;;;;18.80;81.90;;;;;;5148618;27;20031;-73
2022/04/15 12:16:44;;;;;;;;;;;19.40;81.70;;;;;;5148520;27;19911;-73
2022/04/15 12:19:10;;;;;;;;;;;19.90;81.30;;;;;;5148686;27;19915;-73
2022/04/15 12:21:36;;;;;;;;;;;20.60;81.90;;;;;;5148626;27;20063;-73
2022/04/15 12:24:09;;;;;;;;;;;21.50;81.40;;;;;;5148558;27;20340;-73
2022/04/15 12:26:44;;;;;;;;;;;22.40;80.80;;;;;;5148788;27;19959;-72
2022/04/15 12:31:54;;;;;;;;;;;23.80;79.50;;;;;;5148551;27;19921;-73
2022/04/15 12:34:30;;;;;;;;;;;24.20;80.20;;;;;;5129426;27;20276;-73
2022/04/15 12:36:55;;;;;;;;;;;24.50;79.50;;;;;;5148951;27;19926;-74
2022/04/15 12:39:21;;;;;;;;;;;24.60;76.40;;;;;;5148765;27;19915;-74
2022/04/15 12:41:48;;;;;;;;;;;25.00;75.80;;;;;;5149222;27;19936;-73
2022/04/15 12:44:23;;;;;;;;;;;25.00;75.60;;;;;;5129976;27;19934;-74
2022/04/15 12:46:55;;;;;;;;;;;25.20;76.20;;;;;;5148528;27;19915;-74
2022/04/15 12:49:24;;;;;;;;;;;25.80;75.60;;;;;;5149190;27;19907;-73
2022/04/15 12:51:50;;;;;;;;;;;25.90;72.50;;;;;;5148281;27;19922;-74
2022/04/15 12:54:15;;;;;;;;;;;25.70;73.10;;;;;;5148145;27;19907;-74
2022/04/15 12:56:57;;;;;;;;;;;25.50;72.70;;;;;;5129219;27;19919;-73
2022/04/15 12:59:23;;;;;;;;;;;25.40;73.00;;;;;;5149047;27;20038;-73
2022/04/15 13:01:49;;;;;;;;;;;25.40;71.60;;;;;;5148332;27;19952;-73
2022/04/15 13:04:15;;;;;;;;;;;25.20;72.20;;;;;;5148074;27;19924;-73
2022/04/15 13:06:41;;;;;;;;;;;25.30;72.20;;;;;;5148240;27;20393;-72
2022/04/15 13:09:07;;;;;;;;;;;25.70;71.70;;;;;;5148770;27;19939;-73
2022/04/15 13:11:32;;;;;;;;;;;26.00;71.60;;;;;;5148237;27;20002;-73
2022/04/15 13:13:59;;;;;;;;;;;26.00;69.80;;;;;;5146923;27;19941;-72
2022/04/15 13:16:25;;;;;;;;;;;25.70;69.30;;;;;;5129399;27;20337;-72
2022/04/15 13:18:50;;;;;;;;;;;25.30;69.30;;;;;;5147440;27;19911;-73
2022/04/15 13:21:16;;;;;;;;;;;24.80;69.90;;;;;;5147842;27;19911;-73
2022/04/15 13:23:42;;;;;;;;;;;24.60;69.60;;;;;;5147893;27;19914;-73
2022/04/15 13:26:08;;;;;;;;;;;24.20;69.00;;;;;;5147748;27;19943;-72
2022/04/15 13:28:33;;;;;;;;;;;24.00;70.20;;;;;;5129393;27;19930;-73
2022/04/15 13:30:59;;;;;;;;;;;23.90;69.60;;;;;;5129285;27;20001;-73
2022/04/15 13:33:25;;;;;;;;;;;24.00;70.30;;;;;;5150253;27;19911;-73
2022/04/15 13:35:51;;;;;;;;;;;24.00;69.90;;;;;;5151548;27;19934;-73
2022/04/15 13:38:16;;;;;;;;;;;23.90;69.60;;;;;;5151518;27;19911;-73
2022/04/15 13:40:43;;;;;;;;;;;23.60;68.50;;;;;;5132620;27;20323;-73
2022/04/15 13:43:09;;;;;;;;;;;23.40;68.90;;;;;;5151025;27;19911;-72
2022/04/15 13:45:35;;;;;;;;;;;23.00;68.60;;;;;;5151442;27;19907;-73
2022/04/15 13:48:01;;;;;;;;;;;22.80;68.90;;;;;;5151153;27;19914;-73
2022/04/15 13:50:27;;;;;;;;;;;22.60;69.20;;;;;;5151135;27;19911;-73
2022/04/15 13:58:21;;;;;;;;;;;22.00;69.00;;;;;;5151473;27;20280;-73
2022/04/15 14:00:46;;;;;;;;;;;21.90;69.50;;;;;;5115317;27;20002;-73
2022/04/15 14:03:12;;;;;;;;;;;21.90;69.80;;;;;;5150962;27;19911;-73
2022/04/15 14:05:38;;;;;;;;;;;21.80;69.90;;;;;;5151409;27;19950;-73
2022/04/15 14:08:05;;;;;;;;;;;21.90;70.10;;;;;;5151226;27;19946;-73
2022/04/15 14:10:31;;;;;;;;;;;21.90;70.00;;;;;;5151504;27;19997;-73
2022/04/15 14:12:58;;;;;;;;;;;21.70;70.10;;;;;;5151228;27;19956;-73
2022/04/15 14:15:24;;;;;;;;;;;21.80;70.50;;;;;;5115398;27;19934;-72
2022/04/15 14:17:50;;;;;;;;;;;21.90;70.30;;;;;;5151423;27;20349;-73
2022/04/15 14:20:16;;;;;;;;;;;21.90;69.60;;;;;;5132255;27;20027;-73
2022/04/15 14:22:41;;;;;;;;;;;21.70;69.60;;;;;;5150696;27;20325;-72
2022/04/15 14:25:07;;;;;;;;;;;21.50;69.70;;;;;;5150725;27;19917;-72